Luray, Missouri
Current Conditions -  °F | °C
As of 11:35 AM on Thursday 30 Oct 2014 (Local Time) from KEOK Reporting Station
Broken Clouds Broken Clouds  
Wind Chill: 50°   Ceiling: 12000
Heat Index: 50°   Visibility: 10mi
Dew Point: 39°   Wind: 9mph
Humidity: 66%   Direction: 120°ESE
Pressure: 30.04"   Gusts: 15mph
Location:  40.45°N, 91.88°W
Report Text: KEOK 301635Z AUTO 12008G13KT 10SM SCT085 BKN120 10/04 A3004 RMK AO2
Loading
Personal Weather Stations






























Interactive Weather Map
Tropical Storm Tracking
New forecast layout! Learn more

10-Day Weather Forecast

Advertisements
Track Severe Weather on mobile